메인 페이지
METAR-TAF:

METAR-TAF

공항 :

앙카라 Esenboğa, 터키

에센보아 국제공항

위도: 40-07N, 경도: 032-59E, 고도: 953m

현재 날씨관측

예보는 26분 전, 09:20시(UTC)에 발표되었습니다.
남서11kt
온도 6°C
습도 87%
기압 990 hPa
시정 10km 이상
고도 1300ft 상공 구름 조금
고도 2500ft 상공 구름 많음, 타워링 적운.
고도 8000ft 상공 구름 많음
약한소나기

METAR: LTAC 180920Z 22011KT 9999 -SHRA FEW013 BKN025TCU BKN080 06/04 Q0990 NOSIG RMK RWY21L 22013KT RWY03L 21009KT RWY21R 23014KT

시각: 12:46 (09:46 UTC)

예보

예보는 5 시간 6분 전, 04:40시(UTC)에 발표되었습니다.
예보 대상 시간: 18일 06시부터 19일 06시까지 (UTC)
남남서9kt
시정: 8000m
고도 3500ft 상공 구름 많음
고도 9000ft 상공 구름 많음
약한소나기
전환 중
18일 08시부터 18일 11시까지 (UTC)
12kt
약한소낙눈
일시적
18일 11시부터 18일 15시까지 (UTC)
서북서15kt, 순간 최대 풍속 30kt
시정: 2000m
고도 2500ft 상공 구름 많음
고도 8000ft 상공 구름 많음
소낙눈
전환 중
18일 16시부터 18일 18시까지 (UTC)
고도 4000ft 상공 구름 보통
고도 10000ft 상공 구름 많음

TAF: LTAC 180440Z 1806/1906 20009KT 8000 -SHRA BKN035 BKN090 BECMG 1808/1811 28012KT -SHSN TEMPO 1811/1815 29015G30KT 2000 SHSN BKN025 BKN080 BECMG 1816/1818 SCT040 BKN100

4,000개 이상의 공항 관측 자료 및 예보 (METAR 및 TAF 보고).

지도상에서 검색 가능한 기상관측소가 노란 점과 빨간 점으로 표시되어 있습니다.

기상관측소 명을 보려면 표시 위로 마우스를 이동하세요.

날씨 관측과 예보를 보려면 클릭하세요.

지도 변경 : 확대하려면 엑스 표시가 있는 녹색 버튼, 축소하려면 빼기 표시가 있는 녹색 버튼, 다음 페이지의 지도를 보려면 녹색 화살표를 클릭하세요.


METAR-TAF: